Time;durP1;ratioP1;P1;durP2;ratioP2;P2;SDS_P1;SDS_P2;PMS_P1;PMS_P2;Temp;Humidity;BMP_temperature;BMP_pressure;BME280_temperature;BME280_humidity;BME280_pressure;Samples;Min_cycle;Max_cycle;Signal;HPM_P1;HPM_P2
2022/09/24 00:01:55;;;;;;;3.40;3.10;;;13.90;99.90;;;;;;5050999;28;20257;-72
2022/09/24 00:04:26;;;;;;;3.37;3.07;;;13.90;99.90;;;;;;5042071;28;20208;-72
2022/09/24 00:06:53;;;;;;;3.10;2.90;;;13.80;99.90;;;;;;5030139;28;20197;-72
2022/09/24 00:09:21;;;;;;;3.20;3.00;;;13.80;99.90;;;;;;5034050;28;20671;-72
2022/09/24 00:11:50;;;;;;;2.97;2.77;;;13.80;99.90;;;;;;5049731;28;20212;-72
2022/09/24 00:14:17;;;;;;;3.47;3.07;;;13.80;99.90;;;;;;5040865;28;20197;-73
2022/09/24 00:16:44;;;;;;;3.20;3.00;;;13.80;99.90;;;;;;5049570;28;20240;-73
2022/09/24 00:19:13;;;;;;;3.13;2.93;;;13.80;99.90;;;;;;5049771;28;20234;-74
2022/09/24 00:21:41;;;;;;;3.30;2.90;;;13.70;99.90;;;;;;5049643;28;20227;-73
2022/09/24 00:24:10;;;;;;;3.67;3.37;;;13.70;99.90;;;;;;5052645;28;20239;-73
2022/09/24 00:26:51;;;;;;;3.17;2.87;;;13.70;99.90;;;;;;5069797;28;20552;-73
2022/09/24 00:29:20;;;;;;;4.43;3.37;;;13.70;99.90;;;;;;5069642;28;20217;-72
2022/09/24 00:31:47;;;;;;;3.10;2.90;;;13.60;99.90;;;;;;5059415;28;20205;-72
2022/09/24 00:34:15;;;;;;;3.33;3.07;;;13.60;99.90;;;;;;5029088;28;20211;-72
2022/09/24 00:36:42;;;;;;;3.87;3.50;;;13.60;99.90;;;;;;5029058;28;20944;-72
2022/09/24 00:39:09;;;;;;;3.20;3.00;;;13.60;99.90;;;;;;5042428;28;20226;-72
2022/09/24 00:41:37;;;;;;;3.50;3.20;;;13.60;99.90;;;;;;5049290;28;20216;-73
2022/09/24 00:44:44;;;;;;;3.23;3.07;;;13.60;99.90;;;;;;5049532;28;20208;-74
2022/09/24 00:47:13;;;;;;;3.10;2.90;;;13.60;99.90;;;;;;5049524;28;20202;-74
2022/09/24 00:49:42;;;;;;;3.23;3.03;;;13.60;99.90;;;;;;5048694;28;20674;-74
2022/09/24 00:52:09;;;;;;;3.53;3.33;;;13.50;99.90;;;;;;5049279;28;20373;-74
2022/09/24 00:54:36;;;;;;;3.60;3.40;;;13.50;99.90;;;;;;5048787;28;20690;-74
2022/09/24 00:57:03;;;;;;;3.50;3.30;;;13.50;99.90;;;;;;5049447;28;20223;-74
2022/09/24 00:59:30;;;;;;;3.50;3.20;;;13.50;99.90;;;;;;5047824;28;20215;-74
2022/09/24 01:01:57;;;;;;;3.50;3.30;;;13.50;99.90;;;;;;5048611;28;20670;-74
2022/09/24 01:04:27;;;;;;;3.43;3.20;;;13.50;99.90;;;;;;5049097;28;20212;-74
2022/09/24 01:06:56;;;;;;;3.70;3.30;;;13.50;99.90;;;;;;5048768;28;20670;-75
2022/09/24 01:09:25;;;;;;;3.53;3.30;;;13.50;99.90;;;;;;5049145;28;20212;-75
2022/09/24 01:12:05;;;;;;;3.90;3.60;;;13.50;99.90;;;;;;5044582;28;20193;-75
2022/09/24 01:14:50;;;;;;;3.20;3.00;;;13.50;99.90;;;;;;5046748;28;20192;-75
2022/09/24 01:17:26;;;;;;;3.50;3.30;;;13.50;99.90;;;;;;5048869;28;20192;-75
2022/09/24 01:20:21;;;;;;;3.47;3.20;;;13.40;99.90;;;;;;5048573;28;20199;-75
2022/09/24 01:23:03;;;;;;;5.20;3.90;;;13.40;99.90;;;;;;5048458;28;20701;-75
2022/09/24 01:25:39;;;;;;;4.30;3.90;;;13.40;99.90;;;;;;5048267;28;20208;-75
2022/09/24 01:28:26;;;;;;;3.67;3.37;;;13.40;99.90;;;;;;5048850;28;20200;-75
2022/09/24 01:31:01;;;;;;;4.03;3.70;;;13.40;99.90;;;;;;5048271;28;20257;-75
2022/09/24 01:33:32;;;;;;;4.17;3.27;;;13.40;99.90;;;;;;5032133;28;20203;-73
2022/09/24 01:36:07;;;;;;;4.50;4.20;;;13.40;99.90;;;;;;5037418;28;20235;-74
2022/09/24 01:38:39;;;;;;;4.10;3.80;;;13.40;99.90;;;;;;5048113;28;20195;-75
2022/09/24 01:41:09;;;;;;;4.30;4.00;;;13.30;99.90;;;;;;5048231;28;20204;-75
2022/09/24 01:43:38;;;;;;;3.87;3.60;;;13.40;99.90;;;;;;5029690;28;20205;-75
2022/09/24 01:46:06;;;;;;;3.80;3.50;;;13.40;99.90;;;;;;5027451;28;20227;-74
2022/09/24 01:48:36;;;;;;;3.47;3.23;;;13.40;99.90;;;;;;5030505;28;20212;-76
2022/09/24 01:51:08;;;;;;;4.20;3.90;;;13.40;99.90;;;;;;5047615;28;20935;-75
2022/09/24 01:53:42;;;;;;;4.07;3.67;;;13.30;99.90;;;;;;5046667;28;20196;-75
2022/09/24 01:56:14;;;;;;;4.00;3.60;;;13.30;99.90;;;;;;5046507;28;20284;-75
2022/09/24 01:58:47;;;;;;;4.57;4.10;;;13.30;99.90;;;;;;5047590;28;20203;-75
2022/09/24 02:01:21;;;;;;;4.33;3.90;;;13.30;99.90;;;;;;5047953;28;20639;-74
2022/09/24 02:03:53;;;;;;;4.23;3.93;;;13.30;99.90;;;;;;5028091;28;20208;-75
2022/09/24 02:06:25;;;;;;;4.37;3.97;;;13.30;99.90;;;;;;5027748;28;20194;-75
2022/09/24 02:08:52;;;;;;;4.50;4.10;;;13.40;99.90;;;;;;5028186;28;20224;-75
2022/09/24 02:11:23;;;;;;;4.53;4.17;;;13.30;99.90;;;;;;5040110;28;20197;-75
2022/09/24 02:13:59;;;;;;;4.30;4.00;;;13.40;99.90;;;;;;5040250;28;20284;-75
2022/09/24 02:16:30;;;;;;;4.47;4.17;;;13.40;99.90;;;;;;5040939;28;20516;-76
2022/09/24 02:19:00;;;;;;;4.47;4.17;;;13.40;99.90;;;;;;5028046;28;20200;-75
2022/09/24 02:21:29;;;;;;;4.83;4.40;;;13.40;99.90;;;;;;5027501;28;20220;-75
2022/09/24 02:24:01;;;;;;;4.87;4.43;;;13.40;99.90;;;;;;5041952;28;20255;-75
2022/09/24 02:26:29;;;;;;;5.60;3.77;;;13.30;99.90;;;;;;5047400;28;20200;-72
2022/09/24 02:28:57;;;;;;;4.27;3.97;;;13.40;99.90;;;;;;5047869;28;20226;-72
2022/09/24 02:31:29;;;;;;;4.80;4.50;;;13.40;99.90;;;;;;5047180;28;20208;-74
2022/09/24 02:36:43;;;;;;;4.83;4.43;;;13.30;99.90;;;;;;5046645;28;20357;-77
2022/09/24 02:39:10;;;;;;;4.63;4.33;;;13.30;99.90;;;;;;5043360;28;20223;-73
2022/09/24 02:41:37;;;;;;;4.60;4.30;;;13.30;99.90;;;;;;5033387;28;20205;-73
2022/09/24 02:44:04;;;;;;;4.90;4.50;;;13.30;99.90;;;;;;5047472;28;20293;-73
2022/09/24 02:46:32;;;;;;;5.97;4.20;;;13.40;99.90;;;;;;5038013;28;20208;-74
2022/09/24 02:48:59;;;;;;;5.13;4.00;;;13.30;99.90;;;;;;5027662;28;20205;-74
2022/09/24 02:51:25;;;;;;;5.10;4.60;;;13.30;99.90;;;;;;5030518;28;20215;-74
2022/09/24 02:53:52;;;;;;;4.57;4.17;;;13.30;99.90;;;;;;5047827;28;20588;-74
2022/09/24 02:56:19;;;;;;;4.80;4.50;;;13.30;99.90;;;;;;5067165;28;20235;-74
2022/09/24 02:58:45;;;;;;;5.10;4.70;;;13.30;99.90;;;;;;5043039;28;20409;-75
2022/09/24 03:01:12;;;;;;;5.27;4.77;;;13.20;99.90;;;;;;5031341;28;20205;-73
2022/09/24 03:03:40;;;;;;;5.03;4.40;;;13.20;99.90;;;;;;5047774;28;20207;-72
2022/09/24 03:06:07;;;;;;;5.27;4.80;;;13.20;99.90;;;;;;5050883;28;20554;-72
2022/09/24 03:08:34;;;;;;;5.10;4.70;;;13.20;99.90;;;;;;5051212;28;20200;-72
2022/09/24 03:11:01;;;;;;;5.10;4.70;;;13.20;99.90;;;;;;5050683;28;20277;-72
2022/09/24 03:13:28;;;;;;;4.90;4.60;;;13.20;99.90;;;;;;5049969;28;20670;-73
2022/09/24 03:15:54;;;;;;;5.03;4.43;;;13.20;99.90;;;;;;5050542;28;20230;-73
2022/09/24 03:18:21;;;;;;;5.43;5.03;;;13.20;99.90;;;;;;5051316;28;20211;-76
2022/09/24 03:20:57;;;;;;;5.23;4.83;;;13.20;99.90;;;;;;5050834;28;20207;-77
2022/09/24 03:23:23;;;;;;;5.50;4.93;;;13.20;99.90;;;;;;5050241;28;20604;-76
2022/09/24 03:25:50;;;;;;;5.50;4.80;;;13.20;99.90;;;;;;5049875;28;20564;-76
2022/09/24 03:28:17;;;;;;;5.07;4.77;;;13.20;99.90;;;;;;5050667;28;20196;-74
2022/09/24 03:31:02;;;;;;;5.43;4.93;;;13.20;99.90;;;;;;5050262;28;20659;-74
2022/09/24 03:33:31;;;;;;;5.00;4.60;;;13.10;99.90;;;;;;5050129;28;20200;-74
2022/09/24 03:36:01;;;;;;;5.20;4.70;;;13.10;99.90;;;;;;5050451;28;20236;-74
2022/09/24 03:38:29;;;;;;;4.97;4.57;;;13.20;99.90;;;;;;5050803;28;20200;-74
2022/09/24 03:40:56;;;;;;;6.50;5.43;;;13.10;99.90;;;;;;5050722;28;20219;-76
2022/09/24 03:43:23;;;;;;;5.83;5.00;;;13.10;99.90;;;;;;5032979;28;20204;-75
2022/09/24 03:45:50;;;;;;;5.57;5.07;;;13.10;99.90;;;;;;5030716;28;20212;-75
2022/09/24 03:48:18;;;;;;;5.87;5.47;;;13.10;99.90;;;;;;5048814;28;20659;-75
2022/09/24 03:50:45;;;;;;;5.10;4.80;;;13.10;99.90;;;;;;5048105;28;20867;-74
2022/09/24 03:53:13;;;;;;;5.63;4.87;;;13.10;99.90;;;;;;5050091;28;20612;-74
2022/09/24 03:55:43;;;;;;;6.40;5.90;;;13.10;99.90;;;;;;5051406;28;20242;-75
2022/09/24 03:58:10;;;;;;;5.93;5.40;;;13.10;99.90;;;;;;5050487;28;20208;-74
2022/09/24 04:00:38;;;;;;;5.40;5.00;;;13.20;99.90;;;;;;5049842;28;20235;-75
2022/09/24 04:03:05;;;;;;;6.20;5.67;;;13.00;99.90;;;;;;5031762;28;20228;-74
2022/09/24 04:05:32;;;;;;;5.57;5.17;;;13.00;99.90;;;;;;5029878;28;20213;-75
2022/09/24 04:08:00;;;;;;;5.90;5.40;;;13.00;99.90;;;;;;5029853;28;20227;-74
2022/09/24 04:10:29;;;;;;;5.67;5.27;;;13.00;99.90;;;;;;5030757;28;20209;-75
2022/09/24 04:12:55;;;;;;;5.33;4.87;;;13.00;99.90;;;;;;5046522;28;20197;-75
2022/09/24 04:15:23;;;;;;;5.80;5.40;;;13.00;99.90;;;;;;5050156;28;20290;-77
2022/09/24 04:17:50;;;;;;;5.97;5.47;;;13.00;99.90;;;;;;5050332;28;20208;-76
2022/09/24 04:20:21;;;;;;;6.20;5.70;;;13.00;99.90;;;;;;5049609;28;20639;-75
2022/09/24 04:22:48;;;;;;;6.27;5.70;;;13.00;99.90;;;;;;5049212;28;20338;-79
2022/09/24 04:25:16;;;;;;;5.80;5.30;;;13.00;99.90;;;;;;5048660;28;20291;-73
2022/09/24 04:27:44;;;;;;;6.10;5.53;;;13.00;99.90;;;;;;5029880;28;20213;-75
2022/09/24 04:30:12;;;;;;;8.67;6.00;;;13.00;99.90;;;;;;5040605;28;20688;-76
2022/09/24 04:32:39;;;;;;;5.97;5.50;;;13.00;99.90;;;;;;5042234;28;20204;-75
2022/09/24 04:35:07;;;;;;;6.27;5.67;;;13.00;99.90;;;;;;5032576;28;20204;-76
2022/09/24 04:37:34;;;;;;;5.77;5.37;;;13.00;99.90;;;;;;5039891;28;20235;-75
2022/09/24 04:40:01;;;;;;;6.10;5.70;;;13.00;99.90;;;;;;5035056;28;20212;-77
2022/09/24 04:42:28;;;;;;;8.03;5.47;;;13.00;99.90;;;;;;5039951;28;20205;-82
2022/09/24 04:44:56;;;;;;;6.10;5.47;;;13.00;99.90;;;;;;5041219;28;20205;-75
2022/09/24 04:47:24;;;;;;;5.83;5.40;;;13.00;99.90;;;;;;5038934;28;20197;-75
2022/09/24 04:49:52;;;;;;;5.87;5.43;;;13.00;99.90;;;;;;5036959;28;20232;-73
2022/09/24 04:52:18;;;;;;;5.70;5.20;;;13.00;99.90;;;;;;5044432;28;20212;-75
2022/09/24 04:54:46;;;;;;;5.63;5.23;;;12.90;99.90;;;;;;5047238;28;20238;-74
2022/09/24 04:57:13;;;;;;;5.70;5.23;;;13.00;99.90;;;;;;5045377;28;20236;-76
2022/09/24 04:59:39;;;;;;;5.90;5.40;;;12.90;99.90;;;;;;5036632;28;20216;-77
2022/09/24 05:02:07;;;;;;;5.60;5.17;;;12.80;99.90;;;;;;5040864;28;20200;-77
2022/09/24 05:04:34;;;;;;;5.63;5.13;;;12.90;99.90;;;;;;5045799;28;20655;-70
2022/09/24 05:07:01;;;;;;;6.13;5.50;;;12.90;99.90;;;;;;5043871;28;20205;-70
2022/09/24 05:09:29;;;;;;;5.83;5.33;;;12.80;99.90;;;;;;5039968;28;20220;-72
2022/09/24 05:11:55;;;;;;;5.90;5.30;;;12.80;99.90;;;;;;5031712;28;20204;-70
2022/09/24 05:14:22;;;;;;;6.27;5.50;;;12.80;99.90;;;;;;5036197;28;20721;-70
2022/09/24 05:16:49;;;;;;;6.37;5.77;;;12.80;99.90;;;;;;5038084;28;20235;-70
2022/09/24 05:19:17;;;;;;;6.10;5.60;;;12.90;99.90;;;;;;5041318;28;20209;-70
2022/09/24 05:21:44;;;;;;;6.60;6.00;;;12.80;99.90;;;;;;5034000;28;20219;-70
2022/09/24 05:24:10;;;;;;;6.87;6.20;;;12.80;99.90;;;;;;5049896;28;20239;-70
2022/09/24 05:29:21;;;;;;;6.20;5.80;;;12.70;99.90;;;;;;5066280;28;20198;-70
2022/09/24 05:31:48;;;;;;;5.90;5.50;;;12.70;99.90;;;;;;5054930;28;20691;-71
2022/09/24 05:34:16;;;;;;;6.77;5.47;;;12.80;99.90;;;;;;5045546;28;20199;-71
2022/09/24 05:36:44;;;;;;;6.03;5.60;;;12.90;99.90;;;;;;5045230;28;20743;-71
2022/09/24 05:39:13;;;;;;;5.93;5.40;;;12.90;99.90;;;;;;5044356;28;20642;-71
2022/09/24 05:41:40;;;;;;;6.30;5.80;;;13.00;99.90;;;;;;5037291;28;20333;-71
2022/09/24 05:44:07;;;;;;;5.80;5.40;;;13.00;99.90;;;;;;5045359;28;20353;-71
2022/09/24 05:46:34;;;;;;;5.83;5.33;;;13.10;99.90;;;;;;5045780;28;20216;-71
2022/09/24 05:49:01;;;;;;;5.27;4.87;;;13.10;99.90;;;;;;5045808;28;20223;-71
2022/09/24 05:51:29;;;;;;;7.00;5.77;;;13.20;99.90;;;;;;5043516;28;20548;-71
2022/09/24 05:53:56;;;;;;;8.37;7.70;;;13.20;99.90;;;;;;5041985;28;20758;-71
2022/09/24 05:56:22;;;;;;;9.37;5.97;;;13.20;99.90;;;;;;5034154;28;20610;-71
2022/09/24 05:58:49;;;;;;;6.50;6.10;;;13.30;99.90;;;;;;5026316;28;20212;-71
2022/09/24 06:01:16;;;;;;;6.37;5.77;;;13.30;99.90;;;;;;5026772;28;20201;-68
2022/09/24 06:03:43;;;;;;;5.70;5.30;;;13.30;99.90;;;;;;5025601;28;20208;-71
2022/09/24 06:06:10;;;;;;;5.80;5.23;;;13.30;99.90;;;;;;5025677;28;20208;-72
2022/09/24 06:08:38;;;;;;;5.43;5.03;;;13.20;99.90;;;;;;5026732;28;20668;-76
2022/09/24 06:11:07;;;;;;;5.93;5.43;;;13.20;99.90;;;;;;5041095;28;20204;-73
2022/09/24 06:13:34;;;;;;;5.67;5.27;;;13.20;99.90;;;;;;5044602;28;20693;-70
2022/09/24 06:16:02;;;;;;;5.97;5.47;;;13.20;99.90;;;;;;5032082;28;20294;-70
2022/09/24 06:18:30;;;;;;;5.93;5.50;;;13.20;99.90;;;;;;5037135;28;20204;-72
2022/09/24 06:21:01;;;;;;;5.57;5.13;;;13.20;99.90;;;;;;5031173;28;20204;-71
2022/09/24 06:23:28;;;;;;;5.67;5.03;;;13.20;99.90;;;;;;5035850;28;20247;-71
2022/09/24 06:25:56;;;;;;;5.93;5.33;;;13.20;99.90;;;;;;5046476;28;20204;-70
2022/09/24 06:28:24;;;;;;;6.20;5.70;;;13.20;99.90;;;;;;5045205;28;20208;-71
2022/09/24 06:30:51;;;;;;;7.03;6.00;;;13.10;99.90;;;;;;5034103;28;20201;-72
2022/09/24 06:33:19;;;;;;;6.77;5.87;;;13.20;99.90;;;;;;5032894;28;20228;-73
2022/09/24 06:35:46;;;;;;;6.50;5.40;;;13.20;99.90;;;;;;5034532;28;20243;-72
2022/09/24 06:38:14;;;;;;;6.07;5.47;;;13.20;99.90;;;;;;5038895;28;20894;-73
2022/09/24 06:40:44;;;;;;;5.77;5.27;;;13.30;99.90;;;;;;5043333;28;20239;-71
2022/09/24 06:43:13;;;;;;;6.20;5.70;;;13.30;99.90;;;;;;5043706;28;21078;-71
2022/09/24 06:45:40;;;;;;;6.63;6.03;;;13.30;99.90;;;;;;5041829;28;20920;-71
2022/09/24 06:48:08;;;;;;;6.07;5.67;;;13.40;99.90;;;;;;5031682;28;20262;-71
2022/09/24 06:50:35;;;;;;;6.20;5.80;;;13.40;99.90;;;;;;5033402;28;20197;-72
2022/09/24 06:53:05;;;;;;;5.70;5.37;;;13.40;99.90;;;;;;5036072;28;20201;-71
2022/09/24 06:55:32;;;;;;;9.13;5.90;;;13.40;99.90;;;;;;5040362;28;20197;-73
2022/09/24 06:58:04;;;;;;;5.97;5.57;;;13.40;99.90;;;;;;5025232;28;20241;-70
2022/09/24 07:00:33;;;;;;;6.90;6.27;;;13.40;99.90;;;;;;5026740;28;20207;-70
2022/09/24 07:02:59;;;;;;;6.93;6.13;;;13.60;99.90;;;;;;5026025;28;20208;-70
2022/09/24 07:05:26;;;;;;;7.40;6.60;;;13.50;99.90;;;;;;5032304;28;20544;-70
2022/09/24 07:07:53;;;;;;;6.33;5.80;;;13.40;99.90;;;;;;5044062;28;20212;-71
2022/09/24 07:10:20;;;;;;;6.30;5.80;;;13.50;99.90;;;;;;5044206;28;20212;-71
2022/09/24 07:12:47;;;;;;;6.60;6.10;;;13.50;99.90;;;;;;5027570;28;20762;-69
2022/09/24 07:15:13;;;;;;;6.40;5.80;;;13.50;99.90;;;;;;5044784;28;20267;-69
2022/09/24 07:17:44;;;;;;;6.30;5.80;;;13.50;99.90;;;;;;5044578;28;20247;-69
2022/09/24 07:20:11;;;;;;;6.33;5.83;;;13.50;99.90;;;;;;5044817;28;20208;-69
2022/09/24 07:22:39;;;;;;;8.63;5.83;;;13.50;99.90;;;;;;5035068;28;20212;-70
2022/09/24 07:25:08;;;;;;;6.27;5.80;;;13.50;99.90;;;;;;5051684;28;20302;-69
2022/09/24 07:27:34;;;;;;;6.17;5.63;;;13.60;99.90;;;;;;5041533;28;20212;-70
2022/09/24 07:30:01;;;;;;;7.93;5.53;;;13.60;99.90;;;;;;5036509;28;20204;-71
2022/09/24 07:32:29;;;;;;;6.00;5.40;;;13.60;99.90;;;;;;5037639;28;20209;-72
2022/09/24 07:34:57;;;;;;;5.67;5.13;;;13.60;99.90;;;;;;5038175;28;20333;-71
2022/09/24 07:37:23;;;;;;;6.33;5.67;;;13.60;99.90;;;;;;5033764;28;20232;-72
2022/09/24 07:39:50;;;;;;;7.03;6.30;;;13.70;99.90;;;;;;5034699;28;20679;-72
2022/09/24 07:42:18;;;;;;;5.87;5.37;;;13.70;99.90;;;;;;5036995;28;20199;-72
2022/09/24 07:44:47;;;;;;;6.17;5.37;;;13.70;99.90;;;;;;5036613;28;20197;-72
2022/09/24 07:47:15;;;;;;;6.33;5.73;;;13.70;99.90;;;;;;5030309;28;20205;-71
2022/09/24 07:49:43;;;;;;;5.90;5.40;;;13.80;99.90;;;;;;5030046;28;20213;-71
2022/09/24 07:52:11;;;;;;;5.83;5.43;;;13.70;99.90;;;;;;5030805;28;20237;-71
2022/09/24 07:54:38;;;;;;;5.73;5.23;;;13.70;99.90;;;;;;5037744;28;20603;-71
2022/09/24 07:57:10;;;;;;;5.90;5.23;;;13.80;99.90;;;;;;5038831;28;20698;-71
2022/09/24 07:59:37;;;;;;;5.93;5.43;;;13.70;99.90;;;;;;5049757;28;20211;-72
2022/09/24 08:02:07;;;;;;;5.73;5.20;;;13.80;99.90;;;;;;5047351;28;20683;-72
2022/09/24 08:04:34;;;;;;;5.93;5.33;;;13.80;99.90;;;;;;5048736;28;20208;-70
2022/09/24 08:07:01;;;;;;;5.93;5.30;;;13.90;99.90;;;;;;5049949;28;20204;-71
2022/09/24 08:09:29;;;;;;;5.77;5.30;;;13.90;99.90;;;;;;5049081;28;20200;-71
2022/09/24 08:11:55;;;;;;;6.53;5.33;;;13.90;99.90;;;;;;5048449;28;20204;-71
2022/09/24 08:14:22;;;;;;;5.90;5.33;;;13.90;99.90;;;;;;5042193;28;20224;-72
2022/09/24 08:16:49;;;;;;;5.93;5.37;;;13.90;99.90;;;;;;5037127;28;20679;-71
2022/09/24 08:19:16;;;;;;;5.63;5.23;;;14.00;99.90;;;;;;5048899;28;20208;-71
2022/09/24 08:21:42;;;;;;;6.53;5.93;;;14.00;99.90;;;;;;5049408;28;20544;-71
2022/09/24 08:24:10;;;;;;;5.57;5.17;;;14.00;99.90;;;;;;5049321;28;20236;-71
2022/09/24 08:26:38;;;;;;;5.37;4.87;;;14.00;99.90;;;;;;5049593;28;20262;-71
2022/09/24 08:29:04;;;;;;;5.67;5.07;;;14.10;99.90;;;;;;5049193;28;20212;-71
2022/09/24 08:31:33;;;;;;;5.90;5.20;;;14.10;99.90;;;;;;5035410;28;20201;-71
2022/09/24 08:34:00;;;;;;;5.70;5.20;;;14.10;99.90;;;;;;5029233;28;20667;-71
2022/09/24 08:36:27;;;;;;;5.27;4.90;;;14.10;99.90;;;;;;5039728;28;20216;-71
2022/09/24 08:38:54;;;;;;;5.80;5.23;;;14.10;99.90;;;;;;5049526;28;20282;-71
2022/09/24 08:41:37;;;;;;;6.43;5.43;;;14.20;99.90;;;;;;5048852;28;20208;-71
2022/09/24 08:44:08;;;;;;;5.43;5.03;;;14.30;99.90;;;;;;5044787;28;20199;-71
2022/09/24 08:49:30;;;;;;;6.87;6.37;;;14.50;99.90;;;;;;5028868;28;20242;-71
2022/09/24 08:52:04;;;;;;;5.30;4.87;;;14.60;99.90;;;;;;5032746;28;20193;-71
2022/09/24 08:54:35;;;;;;;5.07;4.60;;;14.70;99.90;;;;;;5055497;28;20211;-71
2022/09/24 08:57:10;;;;;;;5.47;4.93;;;14.70;99.90;;;;;;5069118;28;20580;-71
2022/09/24 08:59:42;;;;;;;4.93;4.63;;;14.80;99.90;;;;;;5068796;28;20779;-71
2022/09/24 09:02:25;;;;;;;5.10;4.67;;;14.90;99.90;;;;;;5055369;28;20663;-71
2022/09/24 09:05:02;;;;;;;5.17;4.77;;;15.00;99.90;;;;;;5028758;28;20212;-71
2022/09/24 09:07:32;;;;;;;4.97;4.57;;;15.00;99.90;;;;;;5048179;28;20219;-71
2022/09/24 09:10:02;;;;;;;5.47;4.43;;;15.10;99.90;;;;;;5049318;28;20560;-71
2022/09/24 09:12:36;;;;;;;5.13;4.63;;;15.20;99.90;;;;;;5048171;28;20192;-71
2022/09/24 09:15:10;;;;;;;4.70;4.37;;;15.20;99.90;;;;;;5048849;28;20223;-71
2022/09/24 09:17:44;;;;;;;5.70;5.10;;;15.20;99.90;;;;;;5048955;28;20246;-71
2022/09/24 09:20:17;;;;;;;4.83;4.53;;;15.30;99.90;;;;;;5048545;28;20290;-71
2022/09/24 09:22:47;;;;;;;7.37;4.53;;;15.40;99.90;;;;;;5039758;28;20219;-71
2022/09/24 09:25:19;;;;;;;5.93;4.47;;;15.30;99.90;;;;;;5038262;28;20215;-71
2022/09/24 09:27:49;;;;;;;5.33;4.60;;;15.30;99.90;;;;;;5028753;28;20251;-71
2022/09/24 09:30:20;;;;;;;4.90;4.50;;;15.30;99.90;;;;;;5028349;28;20193;-71
2022/09/24 09:32:59;;;;;;;5.27;4.87;;;15.30;99.90;;;;;;5033855;28;20258;-71
2022/09/24 09:35:34;;;;;;;5.63;4.40;;;15.40;99.90;;;;;;5045858;28;20664;-71
2022/09/24 09:38:16;;;;;;;4.63;4.23;;;15.40;99.90;;;;;;5048398;28;20230;-71
2022/09/24 09:40:48;;;;;;;11.07;5.10;;;15.40;99.90;;;;;;5048093;28;20285;-71
2022/09/24 09:43:15;;;;;;;4.80;4.30;;;15.40;99.90;;;;;;5039942;28;20192;-71
2022/09/24 09:45:55;;;;;;;4.40;4.07;;;15.30;99.90;;;;;;5038609;28;20223;-71
2022/09/24 09:48:24;;;;;;;4.70;4.30;;;15.40;99.90;;;;;;5028267;28;20208;-71
2022/09/24 09:50:59;;;;;;;4.57;4.20;;;15.40;99.90;;;;;;5028055;28;20212;-71
2022/09/24 09:53:27;;;;;;;4.70;4.30;;;15.40;99.90;;;;;;5044719;28;20220;-72
2022/09/24 09:55:56;;;;;;;4.90;4.50;;;15.40;99.90;;;;;;5047680;28;20706;-71
2022/09/24 09:58:24;;;;;;;4.63;4.23;;;15.40;99.90;;;;;;5047763;28;20239;-71
2022/09/24 10:01:03;;;;;;;5.10;4.70;;;15.50;99.90;;;;;;5047765;28;20277;-71
2022/09/24 10:03:33;;;;;;;5.37;4.73;;;15.50;99.90;;;;;;5045770;28;20196;-71
2022/09/24 10:06:02;;;;;;;4.53;4.23;;;15.50;99.90;;;;;;5027068;28;20671;-71
2022/09/24 10:08:29;;;;;;;4.37;4.07;;;15.50;99.90;;;;;;5027477;28;20205;-71
2022/09/24 10:10:58;;;;;;;5.33;4.83;;;15.50;99.90;;;;;;5027732;28;20248;-71
2022/09/24 10:13:26;;;;;;;6.50;4.73;;;15.50;99.90;;;;;;5036622;28;20300;-71
2022/09/24 10:15:57;;;;;;;5.27;4.87;;;15.50;99.90;;;;;;5047637;28;20224;-71
2022/09/24 10:18:30;;;;;;;4.70;4.27;;;15.40;99.90;;;;;;5047440;28;20227;-71
2022/09/24 10:20:58;;;;;;;5.20;4.60;;;15.40;99.90;;;;;;5046823;28;20211;-71
2022/09/24 10:23:33;;;;;;;6.30;4.07;;;15.40;99.90;;;;;;5046340;28;20228;-71
2022/09/24 10:26:01;;;;;;;5.10;4.40;;;15.40;99.90;;;;;;5047351;28;20215;-71
2022/09/24 10:31:20;;;;;;;4.60;4.30;;;15.40;99.90;;;;;;5047225;28;20196;-71
2022/09/24 10:33:49;;;;;;;5.10;4.53;;;15.40;99.90;;;;;;5047308;28;20250;-71
2022/09/24 10:36:19;;;;;;;5.07;4.03;;;15.30;99.90;;;;;;5047110;28;20211;-71
2022/09/24 10:38:46;;;;;;;4.97;4.47;;;15.40;99.90;;;;;;5047013;28;20698;-71
2022/09/24 10:41:16;;;;;;;4.73;4.33;;;15.30;99.90;;;;;;5047417;28;20231;-71
2022/09/24 10:43:50;;;;;;;6.50;4.37;;;15.30;99.90;;;;;;5028786;28;20231;-71
2022/09/24 10:46:34;;;;;;;5.47;4.23;;;15.30;99.90;;;;;;5027411;28;20220;-71
2022/09/24 10:49:10;;;;;;;4.27;3.97;;;15.40;99.90;;;;;;5027489;28;20220;-71
2022/09/24 10:51:46;;;;;;;4.57;4.17;;;15.40;99.90;;;;;;5027831;28;20200;-71
2022/09/24 10:54:41;;;;;;;4.70;4.40;;;15.40;99.90;;;;;;5051347;28;20207;-71
2022/09/24 10:57:18;;;;;;;5.73;5.00;;;15.40;99.90;;;;;;5067500;28;20220;-71
2022/09/24 10:59:57;;;;;;;4.97;4.57;;;15.50;99.90;;;;;;5049626;28;20235;-71
2022/09/24 11:02:40;;;;;;;4.83;4.30;;;15.60;99.90;;;;;;5040321;28;20189;-71
2022/09/24 11:05:12;;;;;;;4.93;4.50;;;15.60;99.90;;;;;;5027313;28;20193;-71
2022/09/24 11:08:04;;;;;;;5.00;4.60;;;15.60;99.90;;;;;;5027296;28;20285;-71
2022/09/24 11:10:50;;;;;;;4.73;4.33;;;15.70;99.90;;;;;;5027188;28;20190;-71
2022/09/24 11:13:25;;;;;;;4.73;4.33;;;15.70;99.90;;;;;;5035631;28;20196;-71
2022/09/24 11:16:12;;;;;;;5.53;4.50;;;15.70;99.90;;;;;;5027448;28;20224;-71
2022/09/24 11:18:49;;;;;;;4.93;4.57;;;15.80;99.90;;;;;;5047159;28;20251;-71
2022/09/24 11:21:28;;;;;;;4.50;4.20;;;15.80;99.90;;;;;;5050834;28;20196;-71
2022/09/24 11:24:27;;;;;;;4.80;4.40;;;15.90;99.90;;;;;;5051371;28;20236;-71
2022/09/24 11:27:05;;;;;;;4.30;4.10;;;15.90;99.90;;;;;;5045017;28;20219;-71
2022/09/24 11:29:50;;;;;;;5.17;4.77;;;16.00;99.90;;;;;;5050771;28;20333;-71
2022/09/24 11:32:25;;;;;;;4.50;4.20;;;16.00;99.90;;;;;;5049831;28;20199;-71
2022/09/24 11:35:15;;;;;;;5.50;5.10;;;16.10;99.90;;;;;;5050490;28;20195;-71
2022/09/24 11:37:54;;;;;;;4.60;4.30;;;16.10;99.90;;;;;;5050054;28;20292;-71
2022/09/24 11:40:50;;;;;;;5.07;4.57;;;16.10;99.90;;;;;;5047047;28;20243;-71
2022/09/24 11:43:32;;;;;;;4.30;4.00;;;16.10;99.90;;;;;;5041641;28;20250;-71
2022/09/24 11:46:16;;;;;;;5.23;4.83;;;16.10;99.90;;;;;;5050324;28;20196;-71
2022/09/24 11:49:00;;;;;;;4.63;4.30;;;16.10;99.90;;;;;;5050178;28;20212;-71
2022/09/24 11:51:41;;;;;;;8.30;4.30;;;16.10;99.90;;;;;;5049983;28;20203;-71
2022/09/24 11:54:17;;;;;;;4.17;3.87;;;16.10;99.90;;;;;;5051886;28;20208;-71
2022/09/24 11:56:48;;;;;;;4.90;4.40;;;16.10;99.90;;;;;;5049815;28;20654;-70
2022/09/24 11:59:21;;;;;;;4.77;4.37;;;16.10;99.90;;;;;;5049838;28;20228;-71
2022/09/24 12:01:54;;;;;;;4.47;4.10;;;16.10;99.90;;;;;;5048858;28;20189;-71
2022/09/24 12:04:26;;;;;;;4.67;4.30;;;16.20;99.90;;;;;;5030207;28;20208;-71
2022/09/24 12:06:59;;;;;;;4.80;4.40;;;16.20;99.90;;;;;;5029890;28;20318;-71
2022/09/24 12:09:31;;;;;;;4.50;4.20;;;16.20;99.90;;;;;;5030356;28;20189;-71
2022/09/24 12:12:05;;;;;;;4.80;4.47;;;16.20;99.90;;;;;;5030840;28;20197;-71
2022/09/24 12:14:43;;;;;;;4.90;4.40;;;16.20;99.90;;;;;;5044509;28;20749;-71
2022/09/24 12:17:17;;;;;;;4.90;4.50;;;16.20;99.90;;;;;;5029815;28;20216;-71
2022/09/24 12:19:52;;;;;;;6.77;4.63;;;16.20;99.90;;;;;;5029486;28;20223;-71
2022/09/24 12:22:21;;;;;;;4.60;4.20;;;16.30;99.90;;;;;;5047102;28;20219;-71
2022/09/24 12:24:51;;;;;;;4.20;3.90;;;16.40;99.90;;;;;;5049337;28;20247;-71
2022/09/24 12:27:25;;;;;;;4.90;4.23;;;16.50;99.90;;;;;;5049762;28;20207;-71
2022/09/24 12:32:54;;;;;;;4.50;4.03;;;16.80;99.90;;;;;;5048568;28;20296;-71
2022/09/24 12:35:37;;;;;;;4.73;4.33;;;16.90;99.90;;;;;;5049410;28;20293;-71
2022/09/24 12:38:08;;;;;;;4.23;3.93;;;17.10;99.90;;;;;;5049097;28;20193;-71
2022/09/24 12:41:30;;;;;;;4.63;4.33;;;17.10;99.90;;;;;;5045460;28;20188;-71
2022/09/24 12:44:05;;;;;;;4.23;3.87;;;17.20;99.90;;;;;;5025062;28;20208;-71
2022/09/24 12:46:39;;;;;;;3.70;3.50;;;17.20;99.90;;;;;;5029403;28;20203;-71
2022/09/24 12:49:18;;;;;;;4.30;4.00;;;17.20;99.90;;;;;;5029746;28;20193;-71
2022/09/24 12:51:44;;;;;;;3.80;3.53;;;17.20;99.90;;;;;;5041842;28;20196;-71
2022/09/24 12:54:25;;;;;;;3.97;3.67;;;17.20;99.90;;;;;;5053204;28;20204;-71
2022/09/24 12:56:52;;;;;;;4.00;3.70;;;17.10;99.90;;;;;;5069416;28;20536;-71
2022/09/24 12:59:27;;;;;;;3.50;3.30;;;17.10;99.90;;;;;;5069181;28;20227;-71
2022/09/24 13:01:54;;;;;;;3.47;3.13;;;17.00;99.90;;;;;;5068568;28;20207;-71
2022/09/24 13:04:28;;;;;;;3.50;3.20;;;17.00;99.90;;;;;;5029192;28;20209;-71
2022/09/24 13:06:55;;;;;;;4.13;2.90;;;17.00;99.90;;;;;;5038222;28;20203;-71
2022/09/24 13:09:35;;;;;;;3.53;2.93;;;17.00;99.90;;;;;;5047378;28;20208;-71
2022/09/24 13:12:17;;;;;;;2.80;2.70;;;17.00;99.90;;;;;;5036672;28;20727;-71
2022/09/24 13:14:51;;;;;;;4.13;2.60;;;16.90;99.90;;;;;;5047401;28;20224;-71
2022/09/24 13:17:18;;;;;;;2.80;2.60;;;16.90;99.90;;;;;;5048826;28;20291;-71
2022/09/24 13:19:47;;;;;;;2.70;2.60;;;17.00;99.90;;;;;;5048361;28;20321;-71
2022/09/24 13:22:25;;;;;;;2.63;2.53;;;16.90;99.90;;;;;;5045817;28;20757;-71